Cleveland Hopkins International Airport
KCLE : now visible

Airfield :











YOU CAN JOIN US ON...

 
LOGIN :

Register | Disclaimer

   EN    FR    IT 

 









Legend :    VFR   Marginal VFR   IFR   Intensive IFR   Very Intensive IFR
Visi :
Ceiling :
>= 8 km
>= 3000ft
5 to 8 km
1000 to 3000 ft
1500m to 5 km
500 to 1000 ft
800 to 1500m
200 to 500 ft
< 800m
< 200 ft
Symbols :   Thunderstorms  Fog  Heavy snow  Heavy precipitations  Wind > 20 kt






- Airport Elevation : 791 ft
- IATA code : CLE


KCLE - Cleveland Hopkins International

CURRENT METAR :
  • 301551Z 36013KT 10SM SCT022 SCT033 BKN039 23/17 A3004 RMK AO2 SLP184 T02280167

EXPIRED METARs :
  • 301537Z 34010KT 10SM SCT022 SCT031 BKN055 22/17 A3004 RMK AO2 T02220167
  • 301451Z 35010KT 10SM SCT017 BKN024 BKN029 23/17 A3003 RMK AO2 SLP180 T02280167 53018
  • 301434Z 34008KT 10SM SCT017 SCT024 BKN047 22/17 A3002 RMK AO2 T02170167
  • 301402Z 34010KT 10SM SCT016 BKN023 BKN045 22/17 A3002 RMK AO2 T02170167
  • 301351Z 34011KT 10SM SCT022 SCT042 BKN050 22/17 A3002 RMK AO2 SLP173 T02170167
  • 301331Z 35011KT 10SM SCT017 SCT028 BKN050 21/17 A3001 RMK AO2 T02110167

TAF KCLE
Valid from the 30 at 15:00 until the 31 at 18:00 UTC


301449Z 3015/3118 36011KT P6SM SCT020 BKN045
FM302200 36005KT P6SM SCT250
KZOB FIR / North America



MET'MAP, your aeronautical weather chart ! - Copyright ORBIFLY December 2007 - Disclaimer

ORBIFLY MET'MAP TEAM :

Programming & Development : Alexandra Zaïnal
Concept & original design : Baudouin d'Aumeries
Assistance for programming : Marc-Olivier Méhu
Technical & hardware support : Manuel Goepfert

Contact : metmap@orbifly.com




SOURCES & CREDITS :

   NOAA       Earth
Advisory